createdAt,value
2018-07-31T00:03:57.266Z,22.60
2018-07-31T00:08:51.604Z,22.55
2018-07-31T00:13:44.690Z,22.44
2018-07-31T00:18:37.696Z,22.34
2018-07-31T00:23:30.745Z,22.20
2018-07-31T00:28:23.788Z,22.15
2018-07-31T00:33:16.821Z,22.11
2018-07-31T00:38:09.860Z,22.04
2018-07-31T00:43:02.932Z,22.01
2018-07-31T00:47:55.950Z,21.91
2018-07-31T00:52:48.981Z,21.82
2018-07-31T00:57:41.985Z,21.74
2018-07-31T01:02:34.918Z,21.68
2018-07-31T01:07:27.970Z,21.67
2018-07-31T01:12:20.997Z,21.64
2018-07-31T01:17:13.955Z,21.55
2018-07-31T01:22:06.983Z,21.47
2018-07-31T01:26:59.973Z,21.41
2018-07-31T01:31:52.996Z,21.37
2018-07-31T01:36:47.046Z,21.37
2018-07-31T01:41:40.539Z,21.26
2018-07-31T01:46:33.562Z,21.17
2018-07-31T01:51:26.581Z,21.15
2018-07-31T01:56:19.526Z,21.17
2018-07-31T02:01:12.572Z,21.19
2018-07-31T02:06:05.657Z,21.13
2018-07-31T02:10:58.644Z,21.00
2018-07-31T02:15:51.666Z,20.87
2018-07-31T02:20:44.711Z,20.85
2018-07-31T02:25:38.134Z,20.82
2018-07-31T02:30:31.140Z,20.79
2018-07-31T02:35:24.163Z,20.71
2018-07-31T02:40:17.183Z,20.68
2018-07-31T02:45:12.624Z,20.61
2018-07-31T02:50:06.829Z,20.56
2018-07-31T02:54:59.841Z,20.55
2018-07-31T02:59:52.873Z,20.53
2018-07-31T03:04:45.948Z,20.46
2018-07-31T03:09:38.956Z,20.42
2018-07-31T03:14:32.013Z,20.34
2018-07-31T03:19:25.054Z,20.27
2018-07-31T03:24:18.068Z,20.29
2018-07-31T03:29:11.126Z,20.21
2018-07-31T03:34:04.300Z,20.15
2018-07-31T03:38:57.304Z,20.14
2018-07-31T03:43:50.319Z,20.13
2018-07-31T03:48:43.335Z,20.11
2018-07-31T03:53:36.337Z,20.09
2018-07-31T03:58:29.336Z,20.08
2018-07-31T04:03:22.329Z,20.11
2018-07-31T04:08:15.340Z,20.12
2018-07-31T04:13:08.346Z,20.24
2018-07-31T04:18:01.360Z,20.29
2018-07-31T04:22:54.415Z,20.94
2018-07-31T04:27:47.454Z,22.02
2018-07-31T04:32:40.526Z,23.20
2018-07-31T04:37:33.613Z,24.44
2018-07-31T04:42:26.666Z,25.41
2018-07-31T04:47:19.664Z,26.41
2018-07-31T04:52:12.664Z,27.15
2018-07-31T04:57:05.689Z,27.43
2018-07-31T05:01:58.768Z,28.48
2018-07-31T05:06:51.820Z,29.06
2018-07-31T05:11:44.932Z,30.00
2018-07-31T05:16:37.918Z,30.51
2018-07-31T05:21:30.975Z,30.99
2018-07-31T05:26:24.047Z,31.69
2018-07-31T05:31:17.083Z,31.90
2018-07-31T05:36:10.120Z,32.91
2018-07-31T05:41:03.160Z,33.27
2018-07-31T05:45:56.164Z,33.32
2018-07-31T05:50:49.196Z,33.48
2018-07-31T05:55:42.189Z,33.57
2018-07-31T06:00:35.230Z,33.47
2018-07-31T06:05:28.331Z,33.33
2018-07-31T06:10:21.433Z,33.19
2018-07-31T06:15:14.614Z,33.31
2018-07-31T06:20:14.417Z,33.10
2018-07-31T06:25:08.125Z,32.76
2018-07-31T06:30:01.392Z,32.46
2018-07-31T06:34:54.576Z,31.77
2018-07-31T06:39:47.593Z,31.23
2018-07-31T06:44:41.737Z,30.58
2018-07-31T06:49:35.280Z,30.74
2018-07-31T06:54:28.804Z,30.49
2018-07-31T06:59:21.890Z,30.55
2018-07-31T07:04:15.015Z,30.38
2018-07-31T07:09:10.084Z,30.28
2018-07-31T07:14:03.199Z,30.44
2018-07-31T07:19:15.738Z,30.49
2018-07-31T07:24:08.852Z,30.31
2018-07-31T07:29:02.081Z,30.36
2018-07-31T07:33:55.177Z,30.19
2018-07-31T07:38:53.730Z,30.42
2018-07-31T07:43:47.196Z,30.41
2018-07-31T07:48:40.498Z,30.50
2018-07-31T07:53:33.660Z,30.41
2018-07-31T07:58:26.715Z,30.65
2018-07-31T08:03:19.823Z,30.88
2018-07-31T08:08:12.907Z,30.86
2018-07-31T08:13:06.224Z,30.67
2018-07-31T08:18:00.081Z,30.58
2018-07-31T08:22:53.160Z,30.69
2018-07-31T08:27:46.697Z,30.87
2018-07-31T08:32:39.737Z,31.06
2018-07-31T08:37:32.981Z,31.25
2018-07-31T08:42:26.664Z,31.28
2018-07-31T08:47:20.645Z,31.52
2018-07-31T08:52:14.589Z,31.72
2018-07-31T08:57:07.696Z,31.86
2018-07-31T09:02:00.813Z,31.95
2018-07-31T09:06:53.980Z,32.06
2018-07-31T09:11:47.080Z,32.00
2018-07-31T09:16:40.220Z,31.95
2018-07-31T09:21:33.352Z,31.97
2018-07-31T09:26:27.048Z,32.14
2018-07-31T09:31:22.208Z,32.13
2018-07-31T09:36:15.764Z,32.36
2018-07-31T09:41:12.932Z,32.62
2018-07-31T09:46:07.722Z,32.89
2018-07-31T09:51:00.944Z,32.90
2018-07-31T09:55:54.043Z,33.00
2018-07-31T10:00:52.773Z,33.22
2018-07-31T10:05:46.028Z,33.42
2018-07-31T10:10:39.113Z,33.45
2018-07-31T10:15:32.216Z,33.62
2018-07-31T10:20:25.524Z,33.89
2018-07-31T10:25:18.716Z,34.08
2018-07-31T10:30:11.868Z,34.07
2018-07-31T10:35:05.079Z,34.20
2018-07-31T10:39:58.391Z,34.34
2018-07-31T10:44:51.545Z,34.66
2018-07-31T10:49:44.722Z,34.93
2018-07-31T10:54:37.813Z,35.05
2018-07-31T10:59:31.136Z,34.92
2018-07-31T11:04:24.480Z,34.89
2018-07-31T11:09:17.705Z,34.70
2018-07-31T11:14:11.002Z,35.06
2018-07-31T11:19:04.280Z,35.40
2018-07-31T11:23:57.344Z,35.38
2018-07-31T11:28:50.582Z,35.62
2018-07-31T11:33:44.684Z,35.89
2018-07-31T11:38:37.761Z,36.31
2018-07-31T11:43:31.271Z,36.49
2018-07-31T11:48:27.583Z,36.64
2018-07-31T11:53:21.321Z,36.68
2018-07-31T11:58:14.414Z,36.68
2018-07-31T12:03:07.545Z,36.73
2018-07-31T12:08:00.561Z,36.64
2018-07-31T12:12:53.886Z,36.56
2018-07-31T12:17:47.306Z,35.95
2018-07-31T12:22:40.459Z,35.86
2018-07-31T12:27:33.512Z,35.88
2018-07-31T12:32:26.534Z,35.79
2018-07-31T12:37:20.004Z,35.60
2018-07-31T12:42:13.198Z,35.60
2018-07-31T12:47:06.375Z,35.64
2018-07-31T12:51:59.544Z,35.37
2018-07-31T12:56:52.792Z,35.63
2018-07-31T13:01:45.871Z,35.97
2018-07-31T13:06:46.958Z,35.97
2018-07-31T13:11:40.354Z,35.92
2018-07-31T13:16:34.668Z,35.39
2018-07-31T13:21:27.884Z,35.26
2018-07-31T13:26:21.127Z,35.57
2018-07-31T13:31:14.396Z,35.53
2018-07-31T13:36:12.913Z,35.58
2018-07-31T13:41:07.865Z,35.37
2018-07-31T13:46:01.653Z,34.99
2018-07-31T13:50:54.756Z,34.86
2018-07-31T13:55:47.955Z,34.86
2018-07-31T14:00:41.186Z,35.17
2018-07-31T14:05:35.030Z,35.42
2018-07-31T14:10:28.163Z,35.67
2018-07-31T14:15:21.432Z,35.87
2018-07-31T14:20:14.653Z,35.95
2018-07-31T14:25:07.943Z,36.04
2018-07-31T14:30:01.305Z,36.15
2018-07-31T14:34:54.428Z,36.06
2018-07-31T14:39:47.812Z,36.04
2018-07-31T14:44:41.345Z,35.84
2018-07-31T14:49:34.525Z,35.74
2018-07-31T14:54:27.951Z,35.76
2018-07-31T14:59:25.067Z,35.74
2018-07-31T15:04:18.072Z,35.88
2018-07-31T15:09:11.260Z,35.85
2018-07-31T15:14:04.788Z,35.36
2018-07-31T15:18:57.824Z,34.75
2018-07-31T15:23:50.799Z,34.38
2018-07-31T15:28:43.839Z,34.42
2018-07-31T15:33:36.889Z,34.32
2018-07-31T15:38:29.920Z,34.27
2018-07-31T15:43:23.045Z,34.49
2018-07-31T15:48:16.086Z,34.50
2018-07-31T15:53:10.224Z,34.58
2018-07-31T15:58:03.357Z,34.53
2018-07-31T16:02:56.403Z,34.70
2018-07-31T16:07:49.400Z,34.91
2018-07-31T16:12:42.537Z,34.96
2018-07-31T16:17:35.612Z,35.06
2018-07-31T16:22:29.359Z,35.21
2018-07-31T16:27:22.669Z,35.06
2018-07-31T16:32:15.827Z,34.98
2018-07-31T16:37:08.911Z,34.84
2018-07-31T16:42:01.953Z,34.79
2018-07-31T16:46:54.952Z,34.81
2018-07-31T16:51:48.035Z,34.80
2018-07-31T16:56:41.038Z,34.48
2018-07-31T17:01:34.121Z,34.55
2018-07-31T17:06:27.193Z,34.56
2018-07-31T17:11:20.195Z,34.57
2018-07-31T17:16:13.228Z,34.52
2018-07-31T17:21:06.666Z,34.41
2018-07-31T17:25:59.680Z,34.39
2018-07-31T17:30:52.724Z,34.40
2018-07-31T17:35:45.796Z,34.39
2018-07-31T17:40:38.840Z,34.33
2018-07-31T17:45:31.857Z,34.18
2018-07-31T17:50:24.892Z,34.08
2018-07-31T17:55:17.938Z,33.92
2018-07-31T18:00:10.898Z,33.78
2018-07-31T18:05:04.085Z,33.62
2018-07-31T18:09:57.129Z,33.48
2018-07-31T18:14:50.237Z,33.41
2018-07-31T18:19:43.204Z,33.24
2018-07-31T18:24:36.229Z,33.12
2018-07-31T18:29:29.244Z,33.01
2018-07-31T18:34:22.304Z,32.90
2018-07-31T18:39:15.336Z,32.68
2018-07-31T18:44:09.102Z,32.44
2018-07-31T18:49:02.200Z,32.08
2018-07-31T18:53:55.222Z,31.72
2018-07-31T18:58:48.247Z,31.52
2018-07-31T19:03:41.252Z,31.25
2018-07-31T19:08:34.299Z,31.02
2018-07-31T19:13:27.360Z,30.77
2018-07-31T19:18:20.437Z,30.51
2018-07-31T19:23:13.472Z,30.34
2018-07-31T19:28:06.581Z,30.27
2018-07-31T19:32:59.654Z,30.12
2018-07-31T19:37:52.653Z,29.94
2018-07-31T19:42:45.665Z,29.78
2018-07-31T19:47:38.668Z,29.71
2018-07-31T19:52:31.676Z,29.51
2018-07-31T19:57:24.793Z,29.46
2018-07-31T20:02:17.877Z,29.37
2018-07-31T20:07:10.881Z,29.24
2018-07-31T20:12:03.980Z,29.19
2018-07-31T20:16:57.010Z,29.07
2018-07-31T20:21:50.029Z,28.96
2018-07-31T20:26:43.157Z,28.87
2018-07-31T20:31:36.193Z,28.76
2018-07-31T20:36:29.201Z,28.63
2018-07-31T20:41:22.296Z,28.52
2018-07-31T20:46:15.585Z,28.47
2018-07-31T20:51:08.625Z,28.37
2018-07-31T20:56:01.628Z,28.16
2018-07-31T21:00:54.752Z,28.05
2018-07-31T21:05:47.806Z,27.99
2018-07-31T21:10:40.828Z,27.83
2018-07-31T21:15:33.873Z,27.88
2018-07-31T21:20:26.920Z,27.71
2018-07-31T21:25:19.997Z,27.64
2018-07-31T21:30:12.993Z,27.48
2018-07-31T21:35:05.987Z,27.36
2018-07-31T21:39:59.016Z,27.29
2018-07-31T21:44:52.044Z,27.18
2018-07-31T21:49:45.024Z,27.07
2018-07-31T21:54:38.368Z,27.00
2018-07-31T21:59:31.453Z,26.89
2018-07-31T22:04:24.442Z,26.83
2018-07-31T22:09:22.000Z,26.74
2018-07-31T22:14:15.020Z,26.67
2018-07-31T22:19:08.040Z,26.55
2018-07-31T22:24:00.991Z,26.53
2018-07-31T22:28:54.000Z,26.47
2018-07-31T22:33:47.018Z,26.42
2018-07-31T22:38:40.024Z,26.33
2018-07-31T22:43:33.168Z,26.22
2018-07-31T22:48:26.184Z,26.11
2018-07-31T22:53:19.225Z,26.02
2018-07-31T22:58:12.252Z,25.96
2018-07-31T23:03:05.331Z,25.88
2018-07-31T23:07:58.392Z,25.86
2018-07-31T23:12:51.416Z,25.74
2018-07-31T23:17:44.499Z,25.72
2018-07-31T23:22:43.497Z,25.68
2018-07-31T23:27:37.064Z,25.61
2018-07-31T23:32:30.085Z,25.57
2018-07-31T23:37:23.090Z,25.48
2018-07-31T23:42:16.101Z,25.44
2018-07-31T23:47:09.116Z,25.45
2018-07-31T23:52:02.188Z,25.40
2018-07-31T23:56:55.188Z,25.31
